createdAt,value
2023-02-04T06:18:42.540Z,0.00
2023-02-04T06:28:42.649Z,0.00
2023-02-04T06:38:42.656Z,0.00
2023-02-04T06:48:42.740Z,0.77
2023-02-04T06:58:42.789Z,3.12
2023-02-04T07:08:42.551Z,0.00
2023-02-04T07:18:42.647Z,0.00
2023-02-04T07:28:42.752Z,0.02
2023-02-04T07:38:42.607Z,0.00
2023-02-04T07:48:42.622Z,0.00
2023-02-04T07:58:42.693Z,0.00
2023-02-04T08:08:42.607Z,0.00
2023-02-04T08:18:42.696Z,0.00
2023-02-04T08:28:42.731Z,0.00
2023-02-04T08:38:42.557Z,0.00
2023-02-04T08:48:42.670Z,0.00
2023-02-04T08:58:42.628Z,2.56
2023-02-04T09:08:42.574Z,5.02
2023-02-04T09:18:42.506Z,5.87
2023-02-04T09:28:42.651Z,3.76
2023-02-04T09:38:42.822Z,1.80
2023-02-04T09:48:42.781Z,7.00
2023-02-04T09:58:42.957Z,13.67
2023-02-04T10:08:42.583Z,12.37
2023-02-04T10:18:42.503Z,10.37
2023-02-04T10:28:42.671Z,10.84
2023-02-04T10:38:42.573Z,9.37
2023-02-04T10:48:42.662Z,7.63
2023-02-04T10:58:42.707Z,5.75
2023-02-04T11:08:42.537Z,8.13
2023-02-04T11:18:42.637Z,6.42
2023-02-04T11:28:42.605Z,5.08
2023-02-04T11:38:42.502Z,5.36
2023-02-04T11:48:42.494Z,2.33
2023-02-04T11:58:42.584Z,2.56
2023-02-04T12:08:42.663Z,5.74
2023-02-04T12:18:42.693Z,7.34
2023-02-04T12:28:42.660Z,6.50
2023-02-04T12:38:42.539Z,11.96
2023-02-04T12:48:42.713Z,8.13
2023-02-04T12:58:42.634Z,6.41
2023-02-04T13:08:42.497Z,6.41
2023-02-04T13:18:42.829Z,3.62
2023-02-04T13:28:42.625Z,3.90
2023-02-04T13:38:42.724Z,2.54
2023-02-04T13:48:42.822Z,5.05
2023-02-04T13:58:42.560Z,4.18
2023-02-04T14:08:42.788Z,4.26
2023-02-04T14:18:42.702Z,4.16
2023-02-04T14:28:42.519Z,3.38
2023-02-04T14:38:42.568Z,2.75
2023-02-04T14:48:42.652Z,0.68
2023-02-04T14:58:42.591Z,0.00
2023-02-04T15:08:42.577Z,0.21
2023-02-04T15:18:42.512Z,1.07
2023-02-04T15:28:42.666Z,6.19
2023-02-04T15:38:42.708Z,7.52
2023-02-04T15:48:42.572Z,7.20
2023-02-04T15:58:42.753Z,6.58
2023-02-04T16:08:42.699Z,3.61
2023-02-04T16:18:42.769Z,0.03
2023-02-04T16:28:42.859Z,0.00
2023-02-04T16:38:42.616Z,0.00
2023-02-04T16:48:42.754Z,0.00
2023-02-04T16:58:42.918Z,0.00
2023-02-04T17:08:42.672Z,0.00
2023-02-04T17:18:42.774Z,0.00
2023-02-04T17:28:42.648Z,0.00
2023-02-04T17:38:42.779Z,2.48
2023-02-04T17:48:42.624Z,0.00
2023-02-04T17:58:42.696Z,0.00
2023-02-04T18:08:42.707Z,0.00
2023-02-04T18:18:42.828Z,0.00
2023-02-04T18:28:42.731Z,0.00
2023-02-04T18:38:42.915Z,0.00
2023-02-04T18:48:42.652Z,0.00
2023-02-04T18:58:42.821Z,0.00
2023-02-04T19:08:42.806Z,0.00
2023-02-04T19:18:42.702Z,0.00
